Bismarck Municipal Airport
KBIS : now visible

Airfield :











YOU CAN JOIN US ON...

 
LOGIN :

Register | Disclaimer

   EN    FR    IT 

 









Legend :    VFR   Marginal VFR   IFR   Intensive IFR   Very Intensive IFR
Visi :
Ceiling :
>= 8 km
>= 3000ft
5 to 8 km
1000 to 3000 ft
1500m to 5 km
500 to 1000 ft
800 to 1500m
200 to 500 ft
< 800m
< 200 ft
Symbols :   Thunderstorms  Fog  Heavy snow  Heavy precipitations  Wind > 20 kt






- Airport Elevation : 1661 ft
- IATA code : BIS


KBIS - Bismarck Municipal

CURRENT METAR :
  • 250725Z AUTO 16008KT 3SM BR OVC004 M08/M09 A2997 RMK AO2 I1001 T10781094

EXPIRED METARs :
  • 250706Z AUTO 18007KT 1 3/4SM BR OVC004 M08/M09 A2998 RMK AO2 T10831094
  • 250652Z AUTO 19008KT 6SM BR OVC003 M08/M09 A2998 RMK AO2 SLP184 I1001 T10831094
  • 250616Z AUTO 19007KT 3SM BR OVC003 M08/M09 A2999 RMK AO2 T10781089
  • 250559Z AUTO 18005KT 1 3/4SM BR OVC003 M08/M09 A2999 RMK AO2 T10781089
  • 250452Z 16008KT 2SM BR OVC003 M07/M08 A3000 RMK AO2 SLP189 I1001 T10721083

TAF KBIS
Valid from the 25 at 06:00 until the 26 at 06:00 UTC


250521Z 2506/2606 16005KT 2SM BR OVC003
TEMPO 2506/2510 1/2SM FG OVC002
FM251000 VRB04KT 1/2SM FG OVC002
FM251500 VRB04KT 3SM BR OVC007
FM251700 19005KT P6SM BKN060
FM251900 23005KT P6SM BKN080



MET'MAP, your aeronautical weather chart ! - Copyright ORBIFLY December 2007 - Disclaimer

ORBIFLY MET'MAP TEAM :

Programming & Development : Alexandra Zaïnal
Concept & original design : Baudouin d'Aumeries
Assistance for programming : Marc-Olivier Méhu
Technical & hardware support : Manuel Goepfert

Contact : metmap@orbifly.com




SOURCES & CREDITS :

   NOAA       Earth
Advisory